createdAt,value
2019-05-11T00:00:53.184Z,83.80
2019-05-11T00:03:21.637Z,83.70
2019-05-11T00:05:50.076Z,83.50
2019-05-11T00:08:18.742Z,84.10
2019-05-11T00:10:47.363Z,84.10
2019-05-11T00:13:15.814Z,84.30
2019-05-11T00:15:44.256Z,84.40
2019-05-11T00:18:12.698Z,84.60
2019-05-11T00:20:41.289Z,84.40
2019-05-11T00:23:09.735Z,84.60
2019-05-11T00:28:06.391Z,85.20
2019-05-11T00:30:34.907Z,85.80
2019-05-11T00:35:31.460Z,86.90
2019-05-11T00:37:59.904Z,86.90
2019-05-11T00:40:28.364Z,87.00
2019-05-11T00:42:56.800Z,87.10
2019-05-11T00:45:25.256Z,86.80
2019-05-11T00:47:53.704Z,86.80
2019-05-11T00:50:37.598Z,87.10
2019-05-11T00:52:52.315Z,87.00
2019-05-11T00:57:48.884Z,86.70
2019-05-11T01:00:17.975Z,86.60
2019-05-11T01:02:46.413Z,86.50
2019-05-11T01:05:14.924Z,86.90
2019-05-11T01:10:23.709Z,87.40
2019-05-11T01:12:42.086Z,87.40
2019-05-11T01:15:11.253Z,87.30
2019-05-11T01:17:39.700Z,87.30
2019-05-11T01:20:08.655Z,87.40
2019-05-11T01:22:37.105Z,87.40
2019-05-11T01:25:06.781Z,87.50
2019-05-11T01:27:35.220Z,87.40
2019-05-11T01:32:32.373Z,87.60
2019-05-11T01:35:00.888Z,87.80
2019-05-11T01:37:29.514Z,88.20
2019-05-11T01:39:58.021Z,88.10
2019-05-11T01:42:26.460Z,88.00
2019-05-11T01:44:54.897Z,88.20
2019-05-11T01:47:23.335Z,88.30
2019-05-11T01:49:51.782Z,88.40
2019-05-11T01:52:20.225Z,88.30
2019-05-11T01:54:48.659Z,88.20
2019-05-11T01:57:17.120Z,88.10
2019-05-11T01:59:45.509Z,88.00
2019-05-11T02:02:13.964Z,87.70
2019-05-11T02:04:42.424Z,87.80
2019-05-11T02:09:38.977Z,88.00
2019-05-11T02:12:07.385Z,88.00
2019-05-11T02:14:35.801Z,88.20
2019-05-11T02:17:04.215Z,88.30
2019-05-11T02:19:32.612Z,88.30
2019-05-11T02:22:01.032Z,88.30
2019-05-11T02:26:57.518Z,88.00
2019-05-11T02:31:54.011Z,87.80
2019-05-11T02:36:50.492Z,87.80
2019-05-11T02:39:18.905Z,87.60
2019-05-11T02:41:47.328Z,87.00
2019-05-11T02:44:15.719Z,86.90
2019-05-11T02:46:44.129Z,86.90
2019-05-11T02:49:12.553Z,87.10
2019-05-11T02:51:41.248Z,87.20
2019-05-11T02:54:11.201Z,87.20
2019-05-11T02:56:39.609Z,87.00
2019-05-11T02:59:08.017Z,86.60
2019-05-11T03:01:36.438Z,86.60
2019-05-11T03:04:04.847Z,86.70
2019-05-11T03:06:33.251Z,86.60
2019-05-11T03:09:01.663Z,85.90
2019-05-11T03:11:30.060Z,85.60
2019-05-11T03:13:58.473Z,85.90
2019-05-11T03:16:26.873Z,86.00
2019-05-11T03:18:55.299Z,86.00
2019-05-11T03:23:51.868Z,86.10
2019-05-11T03:26:20.257Z,86.30
2019-05-11T03:28:48.660Z,86.50
2019-05-11T03:31:17.081Z,86.50
2019-05-11T03:33:45.499Z,86.20
2019-05-11T03:36:13.902Z,86.00
2019-05-11T03:38:42.318Z,86.10
2019-05-11T03:41:10.714Z,86.20
2019-05-11T03:43:39.117Z,86.20
2019-05-11T03:46:07.525Z,86.00
2019-05-11T03:48:35.937Z,85.80
2019-05-11T03:51:04.621Z,85.80
2019-05-11T03:53:33.032Z,85.80
2019-05-11T03:56:01.441Z,86.00
2019-05-11T03:58:29.857Z,86.50
2019-05-11T04:00:58.258Z,86.70
2019-05-11T04:05:54.755Z,86.80
2019-05-11T04:08:23.175Z,86.70
2019-05-11T04:10:51.947Z,86.50
2019-05-11T04:13:20.356Z,86.50
2019-05-11T04:15:48.759Z,86.50
2019-05-11T04:18:17.178Z,85.70
2019-05-11T04:20:45.573Z,85.50
2019-05-11T04:23:13.989Z,85.50
2019-05-11T04:25:43.620Z,85.40
2019-05-11T04:28:12.033Z,85.20
2019-05-11T04:30:40.434Z,85.20
2019-05-11T04:35:36.925Z,85.40
2019-05-11T04:40:33.405Z,85.40
2019-05-11T04:45:31.052Z,85.50
2019-05-11T04:47:59.473Z,85.90
2019-05-11T04:50:27.880Z,86.20
2019-05-11T04:52:56.283Z,86.60
2019-05-11T04:55:24.691Z,86.80
2019-05-11T04:57:53.149Z,87.00
2019-05-11T05:00:21.566Z,87.20
2019-05-11T05:02:49.968Z,87.20
2019-05-11T05:05:18.377Z,87.30
2019-05-11T05:10:20.122Z,86.90
2019-05-11T05:15:16.511Z,87.20
2019-05-11T05:17:44.924Z,86.90
2019-05-11T05:20:13.798Z,87.10
2019-05-11T05:22:42.224Z,87.00
2019-05-11T05:25:10.638Z,86.90
2019-05-11T05:27:39.050Z,86.90
2019-05-11T05:30:08.082Z,86.80
2019-05-11T05:32:36.661Z,86.80
2019-05-11T05:35:07.134Z,87.10
2019-05-11T05:40:04.281Z,87.00
2019-05-11T05:42:32.672Z,86.80
2019-05-11T05:45:01.096Z,86.90
2019-05-11T05:49:57.608Z,87.00
2019-05-11T05:52:26.024Z,87.10
2019-05-11T05:54:54.428Z,87.20
2019-05-11T05:57:22.825Z,87.50
2019-05-11T05:59:51.236Z,87.50
2019-05-11T06:02:19.780Z,87.60
2019-05-11T06:04:48.293Z,87.40
2019-05-11T06:07:16.694Z,87.50
2019-05-11T06:09:45.111Z,87.50
2019-05-11T06:12:13.513Z,87.10
2019-05-11T06:17:10.586Z,87.10
2019-05-11T06:19:39.006Z,86.80
2019-05-11T06:27:03.660Z,89.00
2019-05-11T06:32:00.172Z,89.10
2019-05-11T06:34:28.560Z,89.10
2019-05-11T06:36:57.052Z,89.40
2019-05-11T06:39:25.459Z,89.60
2019-05-11T06:41:53.877Z,89.10
2019-05-11T06:44:22.309Z,89.00
2019-05-11T06:49:24.981Z,88.30
2019-05-11T06:51:53.408Z,88.20
2019-05-11T06:54:21.875Z,88.00
2019-05-11T06:56:50.284Z,87.80
2019-05-11T06:59:18.772Z,88.10
2019-05-11T07:01:47.194Z,88.00
2019-05-11T07:04:15.674Z,88.00
2019-05-11T07:09:12.172Z,87.80
2019-05-11T07:11:40.586Z,88.30
2019-05-11T07:14:19.797Z,88.40
2019-05-11T07:16:39.237Z,88.20
2019-05-11T07:19:26.985Z,87.80
2019-05-11T07:21:55.399Z,87.20
2019-05-11T07:24:23.816Z,87.20
2019-05-11T07:29:20.296Z,86.10
2019-05-11T07:31:48.708Z,86.00
2019-05-11T07:34:19.840Z,85.50
2019-05-11T07:36:48.276Z,85.20
2019-05-11T07:39:18.706Z,84.60
2019-05-11T07:44:18.952Z,82.50
2019-05-11T07:46:48.331Z,82.30
2019-05-11T07:49:17.976Z,81.20
2019-05-11T07:54:18.581Z,77.80
2019-05-11T07:56:47.945Z,77.50
2019-05-11T07:59:18.369Z,77.10
2019-05-11T08:01:47.978Z,77.30
2019-05-11T08:04:18.297Z,77.40
2019-05-11T08:06:47.926Z,77.00
2019-05-11T08:09:18.575Z,76.10
2019-05-11T08:11:47.796Z,74.30
2019-05-11T08:14:18.308Z,74.40
2019-05-11T08:16:48.051Z,74.30
2019-05-11T08:21:48.092Z,74.80
2019-05-11T08:24:18.037Z,75.80
2019-05-11T08:26:48.032Z,76.70
2019-05-11T08:29:18.576Z,77.50
2019-05-11T08:31:48.749Z,77.70
2019-05-11T08:34:18.059Z,77.80
2019-05-11T08:36:48.012Z,78.50
2019-05-11T08:41:48.825Z,78.20
2019-05-11T08:44:18.210Z,78.00
2019-05-11T08:46:48.101Z,78.00
2019-05-11T08:49:18.816Z,78.40
2019-05-11T08:51:47.785Z,78.30
2019-05-11T08:54:18.314Z,78.10
2019-05-11T08:56:48.671Z,78.30
2019-05-11T08:59:18.627Z,78.30
2019-05-11T09:01:48.408Z,78.10
2019-05-11T09:11:48.163Z,75.20
2019-05-11T09:16:48.715Z,72.50
2019-05-11T09:19:17.791Z,73.30
2019-05-11T09:21:48.232Z,72.90
2019-05-11T09:24:18.921Z,71.90
2019-05-11T09:29:17.974Z,64.60
2019-05-11T09:31:48.563Z,62.80
2019-05-11T09:34:18.127Z,63.70
2019-05-11T09:36:48.061Z,62.10
2019-05-11T09:39:28.054Z,62.80
2019-05-11T09:44:28.630Z,65.50
2019-05-11T09:46:59.971Z,67.20
2019-05-11T09:51:58.727Z,69.80
2019-05-11T09:54:28.941Z,69.90
2019-05-11T09:56:57.848Z,70.80
2019-05-11T09:59:28.430Z,71.10
2019-05-11T10:01:58.936Z,71.40
2019-05-11T10:04:28.881Z,72.40
2019-05-11T10:06:58.509Z,72.80
2019-05-11T10:09:27.988Z,72.80
2019-05-11T10:11:58.460Z,72.90
2019-05-11T10:14:28.823Z,73.10
2019-05-11T10:16:58.459Z,73.30
2019-05-11T10:19:28.418Z,73.50
2019-05-11T10:21:58.077Z,73.00
2019-05-11T10:24:28.315Z,72.10
2019-05-11T10:26:57.777Z,71.50
2019-05-11T10:29:28.724Z,71.40
2019-05-11T10:31:58.763Z,71.40
2019-05-11T10:34:28.571Z,71.20
2019-05-11T10:41:58.404Z,72.50
2019-05-11T10:44:28.108Z,72.90
2019-05-11T10:46:58.963Z,73.10
2019-05-11T10:49:28.891Z,73.00
2019-05-11T10:51:58.714Z,72.90
2019-05-11T10:54:28.750Z,73.70
2019-05-11T11:01:58.797Z,73.40
2019-05-11T11:06:58.942Z,73.40
2019-05-11T11:09:28.217Z,73.70
2019-05-11T11:11:57.946Z,73.70
2019-05-11T11:16:58.402Z,73.20
2019-05-11T11:19:28.877Z,72.90
2019-05-11T11:22:06.573Z,72.90
2019-05-11T11:24:28.672Z,74.40
2019-05-11T11:26:57.636Z,75.40
2019-05-11T11:34:24.071Z,77.60
2019-05-11T11:39:20.565Z,78.60
2019-05-11T11:41:49.145Z,79.10
2019-05-11T11:44:18.520Z,79.40
2019-05-11T11:46:54.641Z,79.00
2019-05-11T11:49:18.738Z,78.80
2019-05-11T11:51:48.441Z,78.60
2019-05-11T11:54:18.224Z,78.10
2019-05-11T11:56:48.577Z,77.50
2019-05-11T11:59:17.835Z,77.20
2019-05-11T12:01:48.791Z,76.80
2019-05-11T12:04:18.811Z,76.30
2019-05-11T12:06:48.836Z,76.10
2019-05-11T12:09:18.159Z,76.00
2019-05-11T12:11:48.674Z,76.10
2019-05-11T12:14:18.713Z,76.60
2019-05-11T12:16:47.927Z,76.70
2019-05-11T12:19:18.736Z,77.00
2019-05-11T12:21:48.416Z,77.50
2019-05-11T12:24:18.699Z,77.80
2019-05-11T12:26:48.094Z,77.70
2019-05-11T12:29:18.757Z,78.00
2019-05-11T12:31:48.524Z,78.00
2019-05-11T12:34:17.955Z,77.70
2019-05-11T12:36:48.023Z,78.20
2019-05-11T12:39:18.988Z,78.30
2019-05-11T12:41:47.925Z,78.40
2019-05-11T12:44:18.601Z,78.30
2019-05-11T12:46:48.865Z,78.40
2019-05-11T12:49:18.637Z,79.50
2019-05-11T12:51:48.734Z,80.10
2019-05-11T12:56:48.927Z,81.10
2019-05-11T12:59:18.736Z,81.50
2019-05-11T13:01:48.541Z,81.50
2019-05-11T13:06:47.895Z,81.30
2019-05-11T13:09:18.390Z,81.10
2019-05-11T13:11:48.195Z,80.90
2019-05-11T13:14:18.484Z,80.90
2019-05-11T13:16:48.302Z,81.00
2019-05-11T13:21:48.504Z,79.90
2019-05-11T13:26:44.255Z,80.00
2019-05-11T13:31:40.773Z,80.30
2019-05-11T13:34:09.187Z,79.50
2019-05-11T13:41:38.331Z,79.10
2019-05-11T13:44:08.023Z,78.60
2019-05-11T13:49:08.394Z,77.50
2019-05-11T13:59:10.766Z,79.60
2019-05-11T14:01:39.652Z,79.50
2019-05-11T14:04:08.676Z,79.50
2019-05-11T14:06:37.848Z,79.00
2019-05-11T14:11:38.737Z,78.90
2019-05-11T14:14:07.790Z,79.00
2019-05-11T14:16:37.956Z,79.00
2019-05-11T14:21:38.282Z,79.10
2019-05-11T14:26:38.611Z,79.40
2019-05-11T14:29:08.538Z,79.80
2019-05-11T14:31:38.657Z,78.20
2019-05-11T14:34:08.748Z,78.30
2019-05-11T14:36:38.848Z,78.50
2019-05-11T14:39:08.459Z,78.50
2019-05-11T14:41:38.001Z,77.80
2019-05-11T14:49:07.967Z,77.10
2019-05-11T14:51:38.866Z,77.30
2019-05-11T14:54:08.146Z,77.30
2019-05-11T14:56:38.080Z,77.80
2019-05-11T14:59:08.982Z,78.00
2019-05-11T15:01:38.180Z,78.30
2019-05-11T15:04:09.077Z,78.30
2019-05-11T15:06:38.587Z,78.20
2019-05-11T15:09:08.375Z,78.40
2019-05-11T15:16:38.399Z,78.20
2019-05-11T15:19:08.102Z,78.40
2019-05-11T15:24:08.749Z,78.30
2019-05-11T15:26:38.115Z,78.40
2019-05-11T15:34:08.517Z,78.40
2019-05-11T15:36:38.714Z,78.00
2019-05-11T15:39:07.895Z,78.20
2019-05-11T15:41:38.607Z,77.60
2019-05-11T15:46:38.715Z,76.20
2019-05-11T15:49:08.798Z,76.90
2019-05-11T15:51:40.741Z,76.80
2019-05-11T15:56:38.576Z,76.20
2019-05-11T15:59:08.733Z,76.60
2019-05-11T16:04:08.929Z,76.30
2019-05-11T16:06:36.857Z,76.60
2019-05-11T16:09:08.339Z,76.70
2019-05-11T16:11:38.861Z,76.70
2019-05-11T16:14:08.609Z,76.30
2019-05-11T16:19:13.809Z,76.70
2019-05-11T16:21:38.139Z,76.70
2019-05-11T16:24:08.079Z,77.00
2019-05-11T16:34:02.649Z,77.70
2019-05-11T16:36:31.097Z,77.70
2019-05-11T16:43:58.538Z,78.00
2019-05-11T16:46:28.438Z,78.10
2019-05-11T16:48:57.842Z,78.40
2019-05-11T16:51:28.499Z,78.40
2019-05-11T16:53:58.568Z,78.30
2019-05-11T16:58:55.059Z,77.70
2019-05-11T17:01:23.678Z,77.70
2019-05-11T17:03:52.092Z,77.60
2019-05-11T17:06:20.574Z,77.40
2019-05-11T17:08:49.757Z,77.60
2019-05-11T17:11:18.651Z,76.90
2019-05-11T17:13:48.357Z,75.90
2019-05-11T17:16:17.961Z,75.90
2019-05-11T17:18:48.291Z,75.80
2019-05-11T17:21:18.389Z,75.30
2019-05-11T17:23:48.776Z,75.30
2019-05-11T17:26:19.086Z,75.10
2019-05-11T17:28:48.932Z,75.10
2019-05-11T17:31:18.773Z,75.40
2019-05-11T17:33:47.781Z,75.70
2019-05-11T17:38:47.895Z,75.60
2019-05-11T17:41:16.360Z,75.60
2019-05-11T17:43:44.773Z,75.80
2019-05-11T17:46:13.172Z,76.50
2019-05-11T17:48:41.595Z,76.50
2019-05-11T17:51:20.467Z,76.90
2019-05-11T17:53:40.172Z,76.80
2019-05-11T17:58:37.848Z,76.70
2019-05-11T18:03:43.359Z,76.50
2019-05-11T18:06:11.744Z,76.50
2019-05-11T18:08:40.150Z,76.80
2019-05-11T18:11:08.576Z,77.00
2019-05-11T18:13:39.032Z,77.00
2019-05-11T18:16:08.513Z,77.20
2019-05-11T18:18:37.793Z,77.40
2019-05-11T18:21:08.478Z,77.20
2019-05-11T18:23:38.659Z,77.40
2019-05-11T18:26:28.448Z,77.50
2019-05-11T18:28:58.568Z,77.70
2019-05-11T18:31:28.396Z,78.00
2019-05-11T18:36:28.805Z,78.10
2019-05-11T18:38:56.785Z,78.10
2019-05-11T18:41:25.192Z,78.00
2019-05-11T18:43:53.598Z,78.00
2019-05-11T18:46:22.031Z,78.00
2019-05-11T18:48:50.436Z,77.70
2019-05-11T18:51:18.861Z,77.70
2019-05-11T18:53:48.224Z,77.70
2019-05-11T18:56:18.219Z,77.70
2019-05-11T18:58:47.779Z,77.80
2019-05-11T19:01:17.828Z,78.10
2019-05-11T19:03:47.939Z,78.20
2019-05-11T19:06:18.426Z,78.00
2019-05-11T19:11:18.258Z,77.80
2019-05-11T19:13:47.828Z,78.00
2019-05-11T19:16:18.706Z,78.40
2019-05-11T19:18:47.961Z,78.40
2019-05-11T19:21:18.030Z,78.30
2019-05-11T19:23:48.637Z,78.20
2019-05-11T19:26:17.820Z,78.10
2019-05-11T19:31:14.601Z,78.00
2019-05-11T19:33:45.691Z,78.20
2019-05-11T19:36:13.147Z,78.10
2019-05-11T19:38:41.547Z,78.30
2019-05-11T19:41:09.944Z,78.40
2019-05-11T19:43:38.344Z,78.40
2019-05-11T19:46:08.817Z,78.40
2019-05-11T19:48:38.442Z,78.50
2019-05-11T19:51:10.912Z,78.50
2019-05-11T19:56:09.760Z,78.40
2019-05-11T19:58:38.221Z,78.40
2019-05-11T20:01:08.673Z,78.40
2019-05-11T20:03:37.897Z,78.50
2019-05-11T20:06:08.572Z,78.50
2019-05-11T20:08:36.595Z,78.50
2019-05-11T20:11:05.013Z,78.30
2019-05-11T20:13:33.434Z,78.40
2019-05-11T20:16:01.853Z,78.30
2019-05-11T20:20:58.340Z,78.50
2019-05-11T20:23:26.737Z,78.50
2019-05-11T20:28:23.767Z,78.70
2019-05-11T20:35:48.799Z,78.70
2019-05-11T20:38:18.742Z,78.70
2019-05-11T20:40:48.436Z,78.60
2019-05-11T20:45:48.605Z,78.70
2019-05-11T20:48:18.497Z,78.60
2019-05-11T20:55:47.817Z,78.70
2019-05-11T20:58:18.913Z,78.80
2019-05-11T21:00:48.466Z,78.80
2019-05-11T21:03:16.836Z,79.00
2019-05-11T21:08:13.317Z,79.40
2019-05-11T21:10:41.723Z,79.50
2019-05-11T21:15:38.552Z,79.70
2019-05-11T21:18:07.944Z,79.80
2019-05-11T21:20:38.024Z,79.90
2019-05-11T21:23:08.172Z,80.10
2019-05-11T21:25:37.810Z,80.20
2019-05-11T21:28:08.498Z,80.30
2019-05-11T21:30:39.708Z,80.30
2019-05-11T21:33:08.676Z,80.40
2019-05-11T21:35:38.623Z,80.50
2019-05-11T21:38:07.141Z,80.80
2019-05-11T21:40:37.916Z,80.80
2019-05-11T21:43:05.675Z,81.00
2019-05-11T21:45:34.101Z,81.10
2019-05-11T21:48:02.520Z,81.40
2019-05-11T21:50:30.902Z,81.40
2019-05-11T21:52:59.317Z,81.40
2019-05-11T21:55:29.360Z,81.40
2019-05-11T21:57:58.256Z,81.60
2019-05-11T22:00:29.716Z,81.60
2019-05-11T22:02:58.940Z,81.70
2019-05-11T22:05:28.886Z,81.70
2019-05-11T22:08:17.931Z,82.10
2019-05-11T22:10:46.696Z,82.00
2019-05-11T22:13:15.122Z,82.30
2019-05-11T22:15:43.524Z,82.10
2019-05-11T22:18:11.937Z,82.30
2019-05-11T22:20:40.989Z,82.30
2019-05-11T22:23:09.721Z,82.30
2019-05-11T22:25:38.381Z,82.30
2019-05-11T22:28:08.398Z,82.30
2019-05-11T22:30:39.086Z,82.40
2019-05-11T22:33:08.844Z,82.50
2019-05-11T22:35:38.370Z,82.50
2019-05-11T22:38:08.381Z,82.50
2019-05-11T22:40:38.351Z,82.60
2019-05-11T22:43:09.384Z,82.50
2019-05-11T22:45:38.290Z,82.70
2019-05-11T22:48:07.899Z,82.90
2019-05-11T22:50:38.167Z,83.10
2019-05-11T22:53:08.716Z,83.30
2019-05-11T22:55:38.192Z,83.40
2019-05-11T22:58:08.533Z,83.50
2019-05-11T23:00:39.919Z,83.80
2019-05-11T23:05:38.488Z,84.40
2019-05-11T23:08:07.637Z,84.60
2019-05-11T23:13:04.492Z,85.10
2019-05-11T23:15:32.884Z,85.30
2019-05-11T23:18:01.297Z,85.50
2019-05-11T23:20:30.137Z,85.70
2019-05-11T23:25:28.871Z,86.00
2019-05-11T23:27:58.804Z,86.30
2019-05-11T23:30:28.105Z,86.50
2019-05-11T23:32:58.698Z,86.80
2019-05-11T23:35:28.553Z,86.90
2019-05-11T23:37:58.135Z,86.90
2019-05-11T23:40:28.428Z,87.00
2019-05-11T23:47:58.664Z,87.30
2019-05-11T23:50:28.124Z,87.10
2019-05-11T23:53:05.973Z,87.10
2019-05-11T23:55:28.915Z,87.30
2019-05-11T23:57:57.728Z,87.60
